• Join FlightAware (Why Join?)
  • Login
  • US Flag 
02:44AM EDT


 

Airport Tracker/Info


-or-


 

Live Flight TrackerFlight Track Log ✈ SWA3939 ✈ 10-Aug-2013 ✈ KPDX - KSLC

Flight Track Log - Related Links

Times and Time Zones

All times are in EDT time to prevent confusion due to time zone crossing. See the SWA3939 flight status page for this flight to view local times or setup timezone preferences in your user account.

Time Position Orientation Groundspeed Altitude Reporting Facility
EDT Latitude Longitude Course Direction KTS MPH feet Rate Location/Type
07:03PM 45.6231 -122.6878 301° West 214 246 3,000  Level Seattle Center
07:04PM 45.6531 -122.7622 300° West 229 264 5,900 2,760 Climbing Seattle Center
07:05PM 45.6067 -122.7903 203° Southwest 234 269 9,000 2,040 Climbing Seattle Center
07:07PM 45.5636 -122.6886 121° Southeast 270 311 10,900 2,100 Climbing Seattle Center
07:08PM 45.5194 -122.5689 118° Southeast 325 374 13,900 3,420 Climbing Seattle Center
07:09PM 45.4828 -122.4433 113° Southeast 339 390 17,900 3,600 Climbing Seattle Center
07:10PM 45.4408 -122.2978 112° Southeast 333 383 21,300 2,760 Climbing Seattle Center
07:11PM 45.4042 -122.1694 112° Southeast 347 399 23,600 2,160 Climbing Seattle Center
07:12PM 45.3650 -122.0361 113° Southeast 362 417 25,800 2,040 Climbing Seattle Center
07:13PM 45.3292 -121.9147 113° Southeast 370 426 27,800 1,620 Climbing Seattle Center
07:14PM 45.2886 -121.7775 113° Southeast 376 433 29,100 1,380 Climbing Seattle Center
07:15PM 45.2350 -121.6000 113° Southeast 404 465 30,700 1,320 Climbing Seattle Center
07:16PM 45.1886 -121.4464 113° Southeast 419 482 31,900 1,380 Climbing Seattle Center
07:17PM 45.1428 -121.2878 112° Southeast 435 501 33,600 1,560 Climbing Seattle Center
07:18PM 45.0953 -121.1336 114° Southeast 430 495 35,100 1,320 Climbing Seattle Center
07:19PM 45.0469 -120.9783 114° Southeast 433 498 36,400 1,380 Climbing Seattle Center
07:20PM 44.9989 -120.8217 113° Southeast 436 502 38,000 1,260 Climbing Seattle Center
07:21PM 44.9519 -120.6700 114° Southeast 425 489 39,000 480 Climbing Seattle Center
07:22PM 44.8936 -120.5269 120° Southeast 426 490 39,000  Level Seattle Center
07:23PM 44.8122 -120.4111 135° Southeast 422 486 39,000  Level Seattle Center
07:24PM 44.7303 -120.2931 134° Southeast 426 490 39,000  Level Seattle Center
07:25PM 44.6325 -120.1489 134° Southeast 430 495 39,000  Level Seattle Center
07:26PM 44.5556 -120.0244 131° Southeast 429 494 39,000  Level Seattle Center
07:27PM 44.4772 -119.8989 131° Southeast 429 494 39,000  Level Seattle Center
07:28PM 44.4075 -119.7658 126° Southeast 428 493 39,000  Level Seattle Center
07:29PM 44.3572 -119.6172 115° Southeast 430 495 39,000  Level Seattle Center
07:30PM 44.3144 -119.4611 111° Southeast 433 498 39,000  Level Seattle Center
07:31PM 44.2703 -119.3058 112° Southeast 432 497 39,000  Level Seattle Center
07:32PM 44.2281 -119.1497 111° Southeast 433 498 39,000  Level Seattle Center
07:33PM 44.1825 -118.9947 112° Southeast 433 498 39,000  Level Seattle Center
07:34PM 44.1372 -118.8389 112° Southeast 435 501 39,000  Level Salt Lake Center
07:35PM 44.0847 -118.6486 111° Southeast 439 505 39,000  Level Salt Lake Center
07:36PM 44.0403 -118.4922 112° Southeast 438 504 39,000  Level Salt Lake Center
07:37PM 43.9908 -118.3219 112° Southeast 437 503 39,000  Level Salt Lake Center
07:38PM 43.9458 -118.1719 113° Southeast 430 495 39,000  Level Salt Lake Center
07:39PM 43.9000 -118.0236 113° Southeast 435 501 39,000  Level Salt Lake Center
07:40PM 43.8506 -117.8542 112° Southeast 427 491 39,000  Level Salt Lake Center
07:41PM 43.8083 -117.7097 112° Southeast 424 488 39,000  Level Salt Lake Center
07:42PM 43.7586 -117.5439 112° Southeast 418 481 39,000  Level Salt Lake Center
07:43PM 43.7158 -117.4025 113° Southeast 418 481 39,000  Level Salt Lake Center
07:44PM 43.6675 -117.2394 112° Southeast 414 476 39,000  Level Salt Lake Center
07:45PM 43.6253 -117.0992 113° Southeast 416 479 39,000  Level Salt Lake Center
07:46PM 43.5747 -116.9306 112° Southeast 425 489 39,000  Level Salt Lake Center
07:47PM 43.5311 -116.7897 113° Southeast 419 482 39,000  Level Salt Lake Center
07:48PM 43.4803 -116.6247 113° Southeast 419 482 39,000  Level Salt Lake Center
07:49PM 43.4356 -116.4819 113° Southeast 427 491 39,000  Level Salt Lake Center
07:50PM 43.3914 -116.3381 113° Southeast 428 493 39,000  Level Salt Lake Center
07:52PM 43.3392 -116.1728 113° Southeast 424 488 39,000  Level Salt Lake Center
07:53PM 43.2947 -116.0300 113° Southeast 427 491 39,000  Level Salt Lake Center
07:54PM 43.2411 -115.8603 113° Southeast 435 501 39,000  Level Salt Lake Center
07:55PM 43.1953 -115.7144 113° Southeast 434 499 39,000  Level Salt Lake Center
07:56PM 43.1397 -115.5431 114° Southeast 440 506 39,000  Level Salt Lake Center
07:57PM 43.0931 -115.3994 114° Southeast 434 499 39,000  Level Salt Lake Center
07:58PM 43.0378 -115.2294 114° Southeast 441 507 39,000  Level Salt Lake Center
07:59PM 42.9894 -115.0831 114° Southeast 442 509 39,000  Level Salt Lake Center
08:00PM 42.9419 -114.9372 114° Southeast 440 506 39,000  Level Salt Lake Center
08:01PM 42.8856 -114.7681 114° Southeast 439 505 39,000  Level Salt Lake Center
08:02PM 42.8378 -114.6244 114° Southeast 436 502 39,000 -60 Level Salt Lake Center
08:03PM 42.7861 -114.4692 114° Southeast 433 498 38,900 -540 Descending Salt Lake Center
08:04PM 42.7358 -114.3178 114° Southeast 441 507 38,000 -960 Descending Salt Lake Center
08:05PM 42.6836 -114.1661 115° Southeast 445 512 37,000 -1,020 Descending Salt Lake Center
08:06PM 42.6317 -114.0150 115° Southeast 444 511 36,000 -1,020 Descending Salt Lake Center
08:07PM 42.5617 -113.8375 118° Southeast 446 513 34,900 -1,140 Descending Salt Lake Center
08:08PM 42.4775 -113.7178 134° Southeast 442 509 33,700 -1,680 Descending Salt Lake Center
08:09PM 42.3894 -113.6089 138° Southeast 433 498 31,600 -2,100 Descending Salt Lake Center
08:10PM 42.3086 -113.5008 135° Southeast 417 480 29,500 -1,260 Descending Salt Lake Center
08:11PM 42.2297 -113.3981 136° Southeast 400 460 29,000 -300 Descending Salt Lake Center
08:12PM 42.1536 -113.2964 135° Southeast 387 445 29,000  Level Salt Lake Center
08:13PM 42.0764 -113.1961 136° Southeast 387 445 29,000 -780 Level Salt Lake Center
08:14PM 41.9847 -113.0736 135° Southeast 387 445 27,500 -1,680 Descending Salt Lake Center
08:15PM 41.9094 -112.9753 136° Southeast 379 436 25,600 -1,800 Descending Salt Lake Center
08:16PM 41.8361 -112.8811 136° Southeast 367 422 23,800 -1,860 Descending Salt Lake Center
08:17PM 41.7642 -112.7881 136° Southeast 362 417 21,900 -1,860 Descending Salt Lake Center
08:18PM 41.6894 -112.6939 137° Southeast 369 425 20,100 -1,920 Descending Salt Lake Center
08:19PM 41.6414 -112.6181 130° Southeast 358 412 18,700 -1,920 Descending Salt Lake Center
08:20PM 41.5653 -112.5233 137° Southeast 350 403 16,800 -1,500 Descending Salt Lake Center
08:21PM 41.4906 -112.4456 142° Southeast 338 389 15,600 -1,140 Descending Salt Lake Center
08:22PM 41.4242 -112.3792 143° Southeast 329 379 14,700 -1,020 Descending Salt Lake Center
08:23PM 41.3469 -112.3025 143° Southeast 322 371 13,600 -1,080 Descending Salt Lake Center
08:24PM 41.2706 -112.2283 144° Southeast 316 364 12,500 -1,380 Descending Salt Lake Center
08:25PM 41.2008 -112.1581 143° Southeast 315 362 10,900 -1,440 Descending Salt Lake Center
08:26PM 41.1253 -112.1125 156° South 296 341 9,600 -960 Descending Salt Lake Center
08:27PM 41.0528 -112.0717 157° South 278 320 9,000 -1,020 Descending Salt Lake Center
08:28PM 40.9906 -112.0389 158° South 246 283 7,600 -1,320 Descending Salt Lake Center
08:29PM 40.9256 -112.0042 158° South 232 267 6,300 -960 Descending Salt Lake Center
08:30PM 40.8836 -111.9872 163° South 167 192 5,700 -720 Descending Salt Lake Center
08:31PM 40.8442 -111.9836 176° South 140 161 5,000 -600 Descending Salt Lake Center
08:33PM 40.7944 -111.9753 173° South 129 148 4,200 -540 Descending Salt Lake Center